Time;durP1;ratioP1;P1;durP2;ratioP2;P2;SDS_P1;SDS_P2;PMS_P1;PMS_P2;Temp;Humidity;BMP_temperature;BMP_pressure;BME280_temperature;BME280_humidity;BME280_pressure;Samples;Min_cycle;Max_cycle;Signal;HPM_P1;HPM_P2
2022/04/29 00:01:56;;;;;;;15.38;7.10;;;;;;;10.55;57.28;99930.69;2622766;54;20045;-63
2022/04/29 00:04:28;;;;;;;6.70;6.10;;;;;;;10.65;57.46;99928.72;2621777;54;20027;-65
2022/04/29 00:06:58;;;;;;;9.23;6.97;;;;;;;10.74;57.09;99928.72;2622835;39;20459;-62
2022/04/29 00:09:27;;;;;;;8.63;6.63;;;;;;;10.68;57.18;99924.91;2623539;54;20033;-63
2022/04/29 00:11:57;;;;;;;6.95;6.25;;;;;;;10.73;56.57;99922.59;2623396;39;20399;-63
2022/04/29 00:14:27;;;;;;;8.13;6.88;;;;;;;10.65;56.76;99918.16;2622718;54;20121;-64
2022/04/29 00:16:56;;;;;;;9.55;7.15;;;;;;;10.56;57.34;99929.69;2621977;39;20442;-63
2022/04/29 00:19:29;;;;;;;7.53;6.85;;;;;;;10.64;57.39;99920.94;2621879;54;20038;-62
2022/04/29 00:21:58;;;;;;;9.45;7.47;;;;;;;10.59;57.06;99924.09;2622178;54;20580;-63
2022/04/29 00:24:28;;;;;;;7.50;6.43;;;;;;;10.46;57.98;99925.59;2621662;54;20042;-64
2022/04/29 00:26:58;;;;;;;6.40;5.90;;;;;;;10.49;58.11;99927.88;2622504;39;20430;-64
2022/04/29 00:29:28;;;;;;;7.75;6.95;;;;;;;10.54;57.58;99922.94;2622249;54;20030;-63
2022/04/29 00:31:57;;;;;;;7.85;6.57;;;;;;;10.48;57.45;99918.31;2622511;39;20418;-63
2022/04/29 00:34:29;;;;;;;7.78;6.47;;;;;;;10.48;57.95;99911.19;2621345;54;20125;-63
2022/04/29 00:36:59;;;;;;;9.95;7.47;;;;;;;10.49;57.67;99910.22;2621794;54;20068;-64
2022/04/29 00:39:29;;;;;;;7.97;6.53;;;;;;;10.36;57.50;99917.78;2622270;54;20026;-64
2022/04/29 00:41:59;;;;;;;9.00;7.32;;;;;;;10.12;58.14;99921.19;2622488;54;20050;-63
2022/04/29 00:44:28;;;;;;;8.27;7.47;;;;;;;9.93;58.75;99923.16;2622440;54;20026;-64
2022/04/29 00:46:58;;;;;;;7.85;6.93;;;;;;;9.80;59.53;99919.31;2622831;54;20037;-63
2022/04/29 00:49:30;;;;;;;10.52;7.38;;;;;;;9.86;59.51;99914.19;2622314;47;20038;-64
2022/04/29 00:52:00;;;;;;;7.68;6.93;;;;;;;9.85;59.29;99920.47;2623480;39;20542;-62
2022/04/29 00:54:32;;;;;;;7.40;6.70;;;;;;;9.93;59.16;99912.56;2622786;54;20111;-63
2022/04/29 00:57:04;;;;;;;6.80;5.97;;;;;;;10.01;58.46;99917.06;2621916;47;20018;-63
2022/04/29 00:59:38;;;;;;;7.93;6.82;;;;;;;10.08;58.78;99918.06;2622978;54;20046;-63
2022/04/29 01:02:10;;;;;;;7.28;6.57;;;;;;;10.08;58.29;99927.78;2622734;54;20042;-63
2022/04/29 01:04:55;;;;;;;7.97;6.00;;;;;;;10.15;58.45;99920.88;2622977;39;20078;-63
2022/04/29 01:07:24;;;;;;;8.23;6.60;;;;;;;10.23;58.15;99920.88;2622136;54;20629;-63
2022/04/29 01:09:54;;;;;;;9.77;7.15;;;;;;;10.24;58.08;99917.25;2621335;54;20034;-63
2022/04/29 01:12:24;;;;;;;7.57;6.50;;;;;;;10.20;57.95;99920.38;2621904;47;20793;-63
2022/04/29 01:14:55;;;;;;;7.88;7.13;;;;;;;10.13;58.11;99905.19;2621624;54;20041;-63
2022/04/29 01:17:25;;;;;;;8.02;7.28;;;;;;;10.01;58.04;99905.66;2621139;54;20070;-63
2022/04/29 01:19:57;;;;;;;8.38;7.57;;;;;;;9.89;58.72;99905.97;2621135;47;20029;-63
2022/04/29 01:22:31;;;;;;;9.68;8.00;;;;;;;9.79;58.62;99901.78;2621155;54;20519;-63
2022/04/29 01:25:01;;;;;;;7.63;6.93;;;;;;;9.70;58.79;99894.84;2621017;54;20041;-64
2022/04/29 01:27:31;;;;;;;8.50;7.55;;;;;;;9.67;59.03;99891.56;2620727;47;20286;-63
2022/04/29 01:30:04;;;;;;;8.07;7.25;;;;;;;9.67;59.43;99888.06;2620546;47;20034;-64
2022/04/29 01:32:36;;;;;;;8.60;7.65;;;;;;;9.62;59.48;99898.28;2620684;54;20130;-63
2022/04/29 01:35:07;;;;;;;8.48;7.57;;;;;;;9.51;59.54;99890.63;2620262;54;20088;-62
2022/04/29 01:37:42;;;;;;;8.32;6.63;;;;;;;9.22;60.46;99885.72;2619149;47;20529;-62
2022/04/29 01:40:13;;;;;;;11.70;7.30;;;;;;;9.32;60.23;99886.44;2620267;47;20026;-63
2022/04/29 01:42:44;;;;;;;9.32;7.80;;;;;;;9.50;60.03;99889.00;2620120;47;20031;-64
2022/04/29 01:45:14;;;;;;;7.82;7.07;;;;;;;9.43;59.67;99894.09;2621322;54;20042;-63
2022/04/29 01:48:13;;;;;;;10.55;8.02;;;;;;;9.34;59.99;99887.94;2620327;54;20098;-63
2022/04/29 01:50:45;;;;;;;7.53;6.75;;;;;;;9.29;60.30;99892.88;2621146;54;20034;-62
2022/04/29 01:53:17;;;;;;;8.27;7.45;;;;;;;9.28;60.40;99893.84;2621398;54;20041;-64
2022/04/29 01:55:47;;;;;;;14.45;8.35;;;;;;;9.22;60.71;99881.28;2620448;54;20073;-63
2022/04/29 01:58:17;;;;;;;8.75;7.85;;;;;;;9.20;60.44;99885.06;2621912;51;20046;-64
2022/04/29 02:00:47;;;;;;;9.90;7.53;;;;;;;9.20;61.14;99890.34;2622118;51;20041;-63
2022/04/29 02:03:17;;;;;;;8.15;7.45;;;;;;;9.23;61.11;99890.88;2621246;54;20038;-63
2022/04/29 02:05:47;;;;;;;8.13;7.43;;;;;;;9.22;60.71;99883.09;2622667;54;20557;-63
2022/04/29 02:08:19;;;;;;;8.38;7.53;;;;;;;9.15;61.24;99888.19;2622311;54;20026;-63
2022/04/29 02:10:50;;;;;;;9.43;8.40;;;;;;;9.09;61.32;99880.88;2621413;54;20041;-64
2022/04/29 02:13:24;;;;;;;9.55;7.38;;;;;;;9.15;61.41;99875.81;2621888;47;20122;-63
2022/04/29 02:16:13;;;;;;;8.32;7.53;;;;;;;9.16;60.92;99871.38;2622108;54;20065;-61
2022/04/29 02:18:45;;;;;;;8.52;7.70;;;;;;;9.11;61.14;99869.22;2621240;54;20030;-61
2022/04/29 02:21:15;;;;;;;36.60;27.10;;;;;;;9.13;61.76;99871.69;2621677;54;20027;-62
2022/04/29 02:23:48;;;;;;;9.27;7.43;;;;;;;9.16;61.58;99874.00;2621636;54;20057;-63
2022/04/29 02:26:18;;;;;;;9.70;7.43;;;;;;;9.15;61.31;99867.09;2621476;51;20066;-64
2022/04/29 02:28:47;;;;;;;8.40;7.47;;;;;;;9.07;61.40;99867.88;2621998;54;20581;-61
2022/04/29 02:31:17;;;;;;;9.45;7.72;;;;;;;8.99;61.32;99865.19;2622601;39;20105;-62
2022/04/29 02:33:46;;;;;;;8.38;7.57;;;;;;;8.94;62.13;99859.56;2621894;54;20041;-61
2022/04/29 02:36:16;;;;;;;9.00;8.00;;;;;;;8.83;62.39;99868.53;2621943;54;20042;-65
2022/04/29 02:38:48;;;;;;;8.18;7.35;;;;;;;8.79;62.55;99866.38;2621927;54;20041;-62
2022/04/29 02:41:18;;;;;;;7.88;7.07;;;;;;;8.87;62.71;99866.44;2622232;47;20030;-63
2022/04/29 02:43:48;;;;;;;10.43;7.72;;;;;;;8.95;62.71;99873.56;2622071;47;20038;-62
2022/04/29 02:46:19;;;;;;;8.57;7.75;;;;;;;9.04;62.33;99869.97;2621820;47;20105;-62
2022/04/29 02:48:48;;;;;;;7.88;7.07;;;;;;;9.02;62.52;99864.03;2621917;54;20090;-63
2022/04/29 02:51:18;;;;;;;11.25;7.85;;;;;;;9.03;62.44;99863.06;2622558;54;20027;-62
2022/04/29 02:53:51;;;;;;;8.35;7.45;;;;;;;8.98;61.83;99865.31;2619905;47;20557;-62
2022/04/29 02:56:21;;;;;;;8.65;7.30;;;;;;;8.89;62.59;99867.91;2620608;54;20034;-63
2022/04/29 02:59:00;;;;;;;10.10;7.63;;;;;;;8.96;62.63;99872.56;2620524;54;20049;-62
2022/04/29 03:01:29;;;;;;;9.95;8.13;;;;;;;8.93;62.55;99874.53;2620558;54;20046;-62
2022/04/29 03:04:01;;;;;;;9.60;8.52;;;;;;;8.84;62.50;99872.00;2621102;54;20026;-63
2022/04/29 03:06:32;;;;;;;9.13;8.15;;;;;;;8.63;63.26;99878.47;2620634;39;20438;-62
2022/04/29 03:09:05;;;;;;;8.02;7.25;;;;;;;8.77;63.13;99873.59;2619972;47;20026;-62
2022/04/29 03:11:35;;;;;;;7.75;7.05;;;;;;;8.74;63.16;99876.56;2620950;54;20033;-63
2022/04/29 03:14:05;;;;;;;8.77;7.78;;;;;;;8.57;62.95;99865.91;2621038;54;20057;-63
2022/04/29 03:16:35;;;;;;;12.52;8.55;;;;;;;8.54;63.40;99866.22;2621056;47;20031;-65
2022/04/29 03:19:05;;;;;;;8.70;7.80;;;;;;;8.55;63.68;99869.66;2621184;54;20051;-64
2022/04/29 03:21:34;;;;;;;8.32;7.53;;;;;;;8.61;63.84;99869.03;2620495;54;20034;-64
2022/04/29 03:24:08;;;;;;;9.82;8.80;;;;;;;8.66;62.56;99870.25;2620566;47;20025;-65
2022/04/29 03:26:40;;;;;;;8.95;7.82;;;;;;;8.52;63.17;99873.44;2620692;54;20030;-65
2022/04/29 03:29:10;;;;;;;8.95;7.57;;;;;;;8.48;63.47;99865.97;2619434;54;20030;-65
2022/04/29 03:31:40;;;;;;;9.20;7.60;;;;;;;8.60;63.41;99862.94;2620343;39;20453;-63
2022/04/29 03:34:36;;;;;;;7.93;7.13;;;;;;;8.58;63.58;99864.91;2620255;54;20062;-65
2022/04/29 03:37:06;;;;;;;8.43;7.60;;;;;;;8.59;63.24;99856.03;2620054;54;20035;-65
2022/04/29 03:39:39;;;;;;;13.75;8.38;;;;;;;8.59;63.07;99852.56;2620372;54;20035;-63
2022/04/29 03:42:10;;;;;;;8.85;7.53;;;;;;;8.56;63.12;99853.69;2622130;54;20073;-65
2022/04/29 03:44:40;;;;;;;9.25;8.30;;;;;;;8.46;63.33;99852.16;2621729;54;20554;-64
2022/04/29 03:47:10;;;;;;;11.55;9.35;;;;;;;8.32;63.30;99843.75;2620292;47;20042;-63
2022/04/29 03:49:56;;;;;;;11.45;9.40;;;;;;;8.22;63.72;99847.47;2620023;54;20056;-62
2022/04/29 03:52:26;;;;;;;9.02;8.13;;;;;;;8.10;64.16;99838.97;2621284;54;20042;-65
2022/04/29 03:55:00;;;;;;;11.00;8.40;;;;;;;8.10;64.41;99844.25;2621051;54;20039;-62
2022/04/29 03:57:30;;;;;;;10.68;8.07;;;;;;;8.08;64.70;99843.56;2620399;54;20045;-65
2022/04/29 04:00:00;;;;;;;11.07;7.53;;;;;;;8.17;64.22;99840.84;2621377;54;20057;-62
2022/04/29 04:02:33;;;;;;;10.65;8.48;;;;;;;8.19;64.13;99848.59;2620188;54;20038;-63
2022/04/29 04:05:03;;;;;;;10.02;7.85;;;;;;;8.14;64.15;99846.41;2620872;54;20042;-62
2022/04/29 04:07:33;;;;;;;8.75;7.85;;;;;;;8.06;63.80;99856.88;2621144;54;20564;-62
2022/04/29 04:10:24;;;;;;;8.43;7.40;;;;;;;7.95;64.18;99859.72;2622162;54;20057;-64
2022/04/29 04:12:54;;;;;;;8.15;7.35;;;;;;;7.93;64.47;99856.44;2621106;54;20038;-63
2022/04/29 04:15:50;;;;;;;9.60;7.60;;;;;;;7.98;64.30;99858.63;2621611;54;20046;-63
2022/04/29 04:18:19;;;;;;;11.02;8.45;;;;;;;7.92;64.27;99871.41;2617174;54;20044;-66
2022/04/29 04:20:49;;;;;;;12.63;8.95;;;;;;;7.92;65.03;99870.59;2618252;39;20434;-65
2022/04/29 04:23:19;;;;;;;9.07;8.18;;;;;;;7.93;64.37;99877.50;2617689;49;20031;-66
2022/04/29 04:25:51;;;;;;;8.77;7.90;;;;;;;7.94;64.93;99877.34;2618336;39;20732;-66
2022/04/29 04:28:22;;;;;;;10.27;8.05;;;;;;;8.06;64.73;99877.94;2617876;39;20510;-66
2022/04/29 04:30:57;;;;;;;9.20;8.20;;;;;;;8.27;64.40;99882.09;2618337;39;20477;-66
2022/04/29 04:33:37;;;;;;;8.35;7.57;;;;;;;8.31;64.23;99880.81;2617807;47;20034;-66
2022/04/29 04:36:09;;;;;;;9.73;8.13;;;;;;;8.28;63.75;99881.91;2617913;54;20117;-66
2022/04/29 04:38:39;;;;;;;8.75;7.95;;;;;;;8.32;64.62;99885.09;2618094;54;20026;-66
2022/04/29 04:41:16;;;;;;;10.23;9.07;;;;;;;8.37;64.48;99890.78;2618205;39;20426;-66
2022/04/29 04:43:47;;;;;;;11.20;8.82;;;;;;;8.35;64.01;99882.97;2617699;54;20026;-65
2022/04/29 04:46:17;;;;;;;11.30;9.15;;;;;;;8.26;63.74;99890.97;2618455;54;20042;-65
2022/04/29 04:49:07;;;;;;;9.13;8.23;;;;;;;8.11;64.21;99893.28;2618067;54;20030;-66
2022/04/29 04:51:55;;;;;;;9.80;8.75;;;;;;;8.15;64.69;99898.09;2618811;54;20592;-66
2022/04/29 04:54:31;;;;;;;16.65;12.35;;;;;;;8.22;64.11;99897.53;2617696;47;20027;-67
2022/04/29 04:57:05;;;;;;;11.90;9.98;;;;;;;8.21;64.46;99896.69;2617443;47;20542;-65
2022/04/29 04:59:34;;;;;;;10.10;8.90;;;;;;;8.26;64.54;99899.69;2617864;54;20065;-66
2022/04/29 05:02:05;;;;;;;10.10;9.10;;;;;;;8.22;64.41;99897.53;2623772;54;20053;-66
2022/04/29 05:05:08;;;;;;;12.27;10.30;;;;;;;8.20;64.18;99897.66;2620308;54;20085;-65
2022/04/29 05:07:57;;;;;;;8.90;7.53;;;;;;;8.28;64.42;99896.91;2618452;39;20465;-66
2022/04/29 05:10:27;;;;;;;10.32;8.35;;;;;;;8.41;64.12;99897.41;2618363;54;20046;-66
2022/04/29 05:12:59;;;;;;;27.60;9.38;;;;;;;8.43;63.67;99900.69;2617753;47;20041;-66
2022/04/29 05:15:33;;;;;;;13.52;8.93;;;;;;;8.37;64.06;99894.25;2617432;47;20031;-65
2022/04/29 05:18:06;;;;;;;13.30;8.35;;;;;;;8.36;63.93;99903.06;2617164;47;20026;-64
2022/04/29 05:20:44;;;;;;;10.70;8.18;;;;;;;8.35;63.98;99906.69;2617772;47;20121;-65
2022/04/29 05:23:14;;;;;;;12.00;10.07;;;;;;;8.37;63.88;99902.16;2617593;47;20078;-66
2022/04/29 05:26:03;;;;;;;12.52;11.05;;;;;;;8.44;63.31;99902.34;2618711;39;20167;-65
2022/04/29 05:28:58;;;;;;;9.60;8.20;;;;;;;8.42;63.28;99897.25;2618314;47;20045;-66
2022/04/29 05:31:46;;;;;;;13.60;9.55;;;;;;;8.46;63.25;99910.13;2622413;54;20037;-67
2022/04/29 05:34:37;;;;;;;12.98;8.82;;;;;;;8.51;63.41;99908.66;2623835;47;20026;-65
2022/04/29 05:37:27;;;;;;;9.45;8.55;;;;;;;8.53;62.95;99895.34;2623283;54;20072;-66
2022/04/29 05:42:44;;;;;;;10.60;8.82;;;;;;;8.54;62.87;99905.75;2621151;54;20041;-65
2022/04/29 05:45:16;;;;;;;10.55;8.70;;;;;;;8.57;63.02;99902.81;2620630;54;20057;-67
2022/04/29 05:47:46;;;;;;;13.02;11.45;;;;;;;8.60;62.73;99897.22;2619206;54;20030;-65
2022/04/29 05:50:16;;;;;;;10.05;8.63;;;;;;;8.72;62.54;99899.59;2619476;47;20547;-65
2022/04/29 05:52:47;;;;;;;10.40;9.30;;;;;;;8.80;62.76;99900.50;2619326;47;20033;-66
2022/04/29 05:55:17;;;;;;;11.23;9.65;;;;;;;8.98;62.79;99897.81;2617500;47;20048;-66
2022/04/29 05:58:09;;;;;;;14.30;9.48;;;;;;;9.23;62.50;99906.69;2616958;54;20642;-66
2022/04/29 06:00:56;;;;;;;13.00;9.65;;;;;;;9.36;61.93;99907.09;2617406;54;20566;-65
2022/04/29 06:03:26;;;;;;;14.25;9.35;;;;;;;9.52;61.53;99900.25;2617511;47;20050;-65
2022/04/29 06:05:56;;;;;;;10.85;9.57;;;;;;;9.58;60.89;99902.22;2617577;54;20546;-65
2022/04/29 06:08:26;;;;;;;10.20;9.15;;;;;;;9.62;60.77;99898.28;2617743;54;20062;-67
2022/04/29 06:10:56;;;;;;;9.02;8.07;;;;;;;9.75;61.12;99892.53;2617463;54;20027;-66
2022/04/29 06:13:26;;;;;;;13.35;9.60;;;;;;;9.97;60.12;99897.25;2617807;54;20047;-66
2022/04/29 06:16:30;;;;;;;13.93;8.48;;;;;;;10.09;59.42;99893.31;2617886;54;20027;-67
2022/04/29 06:19:29;;;;;;;9.18;8.27;;;;;;;10.26;58.92;99891.53;2617816;47;20042;-65
2022/04/29 06:22:10;;;;;;;9.13;7.68;;;;;;;10.38;59.06;99889.41;2618199;54;20784;-65
2022/04/29 06:24:45;;;;;;;15.65;9.05;;;;;;;10.52;58.81;99895.81;2617233;54;20030;-65
2022/04/29 06:27:34;;;;;;;11.25;7.95;;;;;;;10.72;58.69;99896.31;2617179;54;20018;-64
2022/04/29 06:30:06;;;;;;;9.70;8.27;;;;;;;10.98;58.46;99894.31;2617925;54;20053;-64
2022/04/29 06:32:58;;;;;;;16.23;9.82;;;;;;;11.30;57.69;99889.91;2617345;54;20118;-65
2022/04/29 06:35:35;;;;;;;10.95;9.85;;;;;;;11.45;56.80;99890.03;2617668;54;20023;-65
2022/04/29 06:38:05;;;;;;;11.80;9.67;;;;;;;11.51;57.17;99886.69;2617641;47;20045;-64
2022/04/29 06:40:58;;;;;;;15.20;11.80;;;;;;;11.68;56.51;99888.28;2618732;47;20287;-66
2022/04/29 06:43:47;;;;;;;14.75;11.38;;;;;;;11.76;56.86;99890.88;2618067;47;20038;-67
2022/04/29 06:46:36;;;;;;;11.88;9.93;;;;;;;11.93;56.14;99883.69;2618832;54;20046;-67
2022/04/29 06:49:40;;;;;;;14.75;11.50;;;;;;;11.95;55.64;99875.56;2619032;39;20507;-66
2022/04/29 06:52:29;;;;;;;14.95;10.82;;;;;;;11.98;55.73;99880.53;2619567;31;20498;-66
2022/04/29 06:55:14;;;;;;;15.55;10.48;;;;;;;12.08;55.88;99879.31;2617940;47;20037;-66
2022/04/29 06:57:45;;;;;;;12.52;9.93;;;;;;;12.27;55.75;99888.59;2618416;47;20049;-66
2022/04/29 07:00:17;;;;;;;22.80;12.02;;;;;;;12.52;55.04;99883.09;2619724;54;20027;-65
2022/04/29 07:02:47;;;;;;;13.32;10.77;;;;;;;12.68;54.45;99882.13;2619330;47;20033;-66
2022/04/29 07:05:19;;;;;;;13.02;10.73;;;;;;;12.65;54.50;99888.63;2618088;54;20157;-64
2022/04/29 07:07:50;;;;;;;13.30;10.05;;;;;;;12.71;54.19;99895.06;2620245;54;20026;-64
2022/04/29 07:10:40;;;;;;;14.48;10.68;;;;;;;12.83;54.28;99883.00;2623825;54;20548;-65
2022/04/29 07:13:28;;;;;;;16.63;10.90;;;;;;;12.93;53.32;99880.91;2623360;54;20045;-68
2022/04/29 07:15:58;;;;;;;12.43;10.68;;;;;;;12.86;53.39;99872.03;2622975;54;20034;-64
2022/04/29 07:18:46;;;;;;;16.58;10.73;;;;;;;12.89;53.21;99876.94;2620775;54;20077;-64
2022/04/29 07:21:20;;;;;;;14.43;10.63;;;;;;;12.96;53.28;99871.75;2619394;47;20029;-66
2022/04/29 07:23:50;;;;;;;12.70;9.77;;;;;;;13.08;53.41;99870.31;2619027;54;20026;-65
2022/04/29 07:26:20;;;;;;;16.17;11.63;;;;;;;13.26;52.96;99869.94;2619732;54;20035;-65
2022/04/29 07:28:50;;;;;;;15.93;10.57;;;;;;;13.31;52.68;99864.94;2619575;54;20026;-66
2022/04/29 07:31:26;;;;;;;16.45;10.55;;;;;;;13.36;52.15;99863.38;2620998;54;20030;-66
2022/04/29 07:34:14;;;;;;;19.58;11.15;;;;;;;13.28;52.52;99863.47;2620973;54;20034;-66
2022/04/29 07:42:47;;;;;;;15.05;10.02;;;;;;;13.77;52.06;99854.88;2621926;54;20098;-67
2022/04/29 07:45:17;;;;;;;15.27;10.93;;;;;;;13.95;51.93;99857.09;2622079;39;20426;-66
2022/04/29 07:48:11;;;;;;;15.35;11.00;;;;;;;14.26;52.07;99858.63;2620744;54;20170;-66
2022/04/29 07:50:41;;;;;;;20.17;10.90;;;;;;;14.53;52.01;99857.88;2620598;54;20126;-69
2022/04/29 07:53:14;;;;;;;15.38;9.98;;;;;;;14.77;51.44;99859.25;2621212;54;20042;-65
2022/04/29 07:55:44;;;;;;;17.60;10.63;;;;;;;14.88;51.44;99859.75;2621839;47;20018;-65
2022/04/29 07:58:15;;;;;;;15.48;11.68;;;;;;;15.07;51.07;99870.53;2619025;47;20065;-65
2022/04/29 08:00:45;;;;;;;15.10;9.98;;;;;;;15.17;49.80;99862.19;2619388;47;20069;-66
2022/04/29 08:03:35;;;;;;;15.63;10.90;;;;;;;15.25;50.12;99862.03;2619216;47;20026;-65
2022/04/29 08:06:08;;;;;;;17.00;11.30;;;;;;;15.38;50.27;99863.94;2618396;54;20076;-65
2022/04/29 08:08:40;;;;;;;15.18;11.18;;;;;;;15.53;49.40;99856.63;2618453;54;20042;-66
2022/04/29 08:11:10;;;;;;;16.88;10.00;;;;;;;15.71;49.24;99860.63;2618518;47;20038;-65
2022/04/29 08:14:06;;;;;;;19.75;10.07;;;;;;;15.75;49.43;99860.00;2618664;54;20045;-64
2022/04/29 08:17:06;;;;;;;18.08;11.90;;;;;;;15.89;48.82;99865.41;2618410;54;20038;-65
2022/04/29 08:19:39;;;;;;;13.35;10.50;;;;;;;15.87;47.91;99852.25;2617901;47;20118;-65
2022/04/29 08:22:14;;;;;;;13.73;10.60;;;;;;;15.98;47.97;99858.84;2617698;47;20557;-65
2022/04/29 08:24:47;;;;;;;14.65;9.80;;;;;;;16.06;47.86;99848.00;2618578;39;20395;-64
2022/04/29 08:27:17;;;;;;;15.50;9.48;;;;;;;16.12;47.72;99852.50;2617690;54;20116;-64
2022/04/29 08:29:53;;;;;;;12.55;9.45;;;;;;;16.21;47.81;99845.97;2617958;47;20069;-65
2022/04/29 08:32:23;;;;;;;12.45;9.85;;;;;;;16.29;47.71;99853.78;2622992;54;20041;-66
2022/04/29 08:34:54;;;;;;;16.48;10.57;;;;;;;16.46;47.29;99848.84;2624228;46;20038;-66
2022/04/29 08:37:23;;;;;;;17.63;9.15;;;;;;;16.64;47.09;99847.41;2622853;49;20094;-67
2022/04/29 08:39:57;;;;;;;10.35;8.80;;;;;;;16.70;47.14;99843.94;2624075;39;20441;-65
2022/04/29 08:42:29;;;;;;;12.95;9.50;;;;;;;16.88;46.46;99844.13;2619047;54;20042;-65
2022/04/29 08:45:00;;;;;;;9.32;7.47;;;;;;;16.95;45.85;99834.25;2618274;39;20513;-64
2022/04/29 08:47:40;;;;;;;11.00;8.07;;;;;;;16.95;45.76;99836.94;2617518;54;20149;-64
2022/04/29 08:50:22;;;;;;;12.73;9.00;;;;;;;17.05;46.18;99834.63;2617961;54;20031;-64
2022/04/29 08:52:52;;;;;;;11.77;8.15;;;;;;;17.06;46.22;99835.44;2618753;54;20543;-64
2022/04/29 09:00:49;;;;;;;10.27;7.18;;;;;;;17.28;45.79;99831.50;2618323;54;20037;-65
2022/04/29 09:03:22;;;;;;;9.45;6.90;;;;;;;17.35;45.64;99828.81;2618331;54;20034;-66
2022/04/29 09:05:53;;;;;;;8.60;6.75;;;;;;;17.44;45.59;99822.19;2619014;39;20426;-64
2022/04/29 09:08:24;;;;;;;9.05;6.50;;;;;;;17.46;45.16;99816.59;2617955;54;20033;-64
2022/04/29 09:10:59;;;;;;;10.52;6.80;;;;;;;17.65;45.03;99818.38;2618560;54;20034;-65
2022/04/29 09:13:30;;;;;;;11.05;6.18;;;;;;;17.76;44.87;99817.72;2618510;54;20030;-65
2022/04/29 09:16:02;;;;;;;12.65;6.57;;;;;;;17.88;45.01;99807.19;2617715;47;20041;-65
2022/04/29 09:18:35;;;;;;;12.02;8.73;;;;;;;18.02;43.49;99810.56;2617402;54;20535;-65
2022/04/29 09:21:10;;;;;;;10.13;7.53;;;;;;;17.98;43.15;99814.72;2617995;54;20042;-66
2022/04/29 09:23:42;;;;;;;12.30;7.82;;;;;;;17.91;43.42;99814.75;2617568;47;20041;-65
2022/04/29 09:26:44;;;;;;;7.38;5.75;;;;;;;17.93;43.22;99806.53;2618099;54;20053;-65
2022/04/29 09:29:41;;;;;;;8.05;6.15;;;;;;;17.86;42.92;99806.56;2618325;54;20589;-65
2022/04/29 09:32:14;;;;;;;8.55;6.40;;;;;;;17.95;42.81;99804.44;2618476;54;20584;-65
2022/04/29 09:35:02;;;;;;;8.98;5.57;;;;;;;18.09;42.97;99803.31;2618174;54;20061;-65
2022/04/29 09:37:33;;;;;;;8.18;5.25;;;;;;;18.13;42.49;99795.69;2617783;54;20042;-65
2022/04/29 09:40:05;;;;;;;7.55;5.63;;;;;;;18.19;43.15;99803.63;2617923;39;20407;-66
2022/04/29 09:42:42;;;;;;;8.80;6.30;;;;;;;18.31;42.44;99791.19;2617687;54;20566;-65
2022/04/29 09:45:22;;;;;;;5.80;4.97;;;;;;;18.43;42.90;99790.47;2618123;54;20046;-65
2022/04/29 09:47:56;;;;;;;8.25;5.57;;;;;;;18.54;42.03;99789.78;2617892;54;20035;-64
2022/04/29 09:50:47;;;;;;;8.73;5.20;;;;;;;18.72;41.26;99779.09;2618005;54;20538;-64
2022/04/29 09:53:23;;;;;;;7.15;4.90;;;;;;;18.86;39.75;99781.63;2618010;47;20038;-64
2022/04/29 09:56:14;;;;;;;7.78;5.25;;;;;;;19.03;38.93;99777.34;2618535;54;20065;-65
2022/04/29 09:58:48;;;;;;;5.32;4.82;;;;;;;19.05;37.11;99775.25;2618319;54;20042;-65
2022/04/29 10:01:20;;;;;;;10.98;5.28;;;;;;;19.08;38.20;99772.13;2619605;39;20148;-65
2022/04/29 10:03:50;;;;;;;5.88;5.30;;;;;;;19.08;38.66;99758.72;2618613;54;20058;-64
2022/04/29 10:06:26;;;;;;;7.20;5.00;;;;;;;19.12;38.46;99772.50;2618702;54;20094;-65
2022/04/29 10:08:57;;;;;;;6.00;5.40;;;;;;;19.10;37.91;99761.16;2617631;54;20038;-65
2022/04/29 10:11:28;;;;;;;8.27;5.35;;;;;;;19.11;37.92;99765.50;2618965;54;20027;-65
2022/04/29 10:14:04;;;;;;;5.50;4.53;;;;;;;19.02;36.00;99764.97;2619095;54;20039;-65
2022/04/29 10:16:41;;;;;;;4.90;4.20;;;;;;;19.10;35.36;99758.47;2617803;54;20038;-65
2022/04/29 10:22:56;;;;;;;5.47;4.72;;;;;;;19.26;33.87;99749.81;2621458;54;20561;-66
2022/04/29 10:25:28;;;;;;;5.50;3.65;;;;;;;19.18;34.11;99745.59;2620948;54;20038;-66
2022/04/29 10:27:58;;;;;;;6.30;4.60;;;;;;;19.28;33.66;99753.13;2619188;46;20034;-65
2022/04/29 10:30:33;;;;;;;5.18;3.85;;;;;;;19.35;32.55;99750.31;2619426;54;20042;-64
2022/04/29 10:33:08;;;;;;;5.07;4.20;;;;;;;19.43;31.20;99741.97;2619963;54;20054;-66
2022/04/29 10:35:49;;;;;;;5.30;3.65;;;;;;;19.51;29.81;99750.53;2621617;54;20042;-64
2022/04/29 10:38:20;;;;;;;4.47;3.22;;;;;;;19.52;29.81;99746.81;2618917;54;20034;-64
2022/04/29 10:40:51;;;;;;;3.95;3.20;;;;;;;19.70;29.26;99743.25;2619537;54;20031;-66
2022/04/29 10:43:21;;;;;;;5.70;3.05;;;;;;;19.81;29.39;99746.22;2618920;54;20637;-66
2022/04/29 10:46:24;;;;;;;6.88;3.63;;;;;;;19.94;28.65;99746.00;2619290;47;20123;-66
2022/04/29 10:49:32;;;;;;;3.70;2.83;;;;;;;20.09;28.52;99734.84;2619243;47;20035;-67
2022/04/29 10:52:28;;;;;;;3.90;3.08;;;;;;;20.23;27.88;99722.81;2618809;54;20057;-66
2022/04/29 10:55:08;;;;;;;3.67;3.03;;;;;;;20.33;27.99;99723.06;2618150;54;20561;-64
2022/04/29 10:57:59;;;;;;;4.88;4.05;;;;;;;20.58;28.96;99720.16;2619347;39;20422;-65
2022/04/29 11:00:31;;;;;;;8.68;4.40;;;;;;;20.63;29.46;99722.94;2619846;54;20027;-65
2022/04/29 11:03:33;;;;;;;7.07;4.40;;;;;;;20.50;28.79;99726.69;2619011;54;20037;-66
2022/04/29 11:06:12;;;;;;;4.97;3.75;;;;;;;20.27;29.60;99722.09;2619630;54;20027;-65
2022/04/29 11:08:42;;;;;;;6.57;4.88;;;;;;;20.37;30.42;99718.84;2618986;39;20450;-67
2022/04/29 11:11:12;;;;;;;6.00;4.13;;;;;;;20.34;30.67;99708.56;2619059;54;20038;-67
2022/04/29 11:14:01;;;;;;;7.07;4.18;;;;;;;20.59;29.83;99707.53;2618611;47;20035;-67
2022/04/29 11:16:58;;;;;;;3.97;3.13;;;;;;;20.65;28.59;99701.19;2618914;54;20041;-63
2022/04/29 11:19:47;;;;;;;3.45;3.10;;;;;;;20.72;26.39;99699.22;2620063;31;20531;-64
2022/04/29 11:25:10;;;;;;;5.88;3.95;;;;;;;21.03;26.53;99695.28;2618963;54;20038;-64
2022/04/29 11:27:47;;;;;;;6.63;3.65;;;;;;;21.23;25.74;99692.16;2618502;47;20031;-66
2022/04/29 11:30:22;;;;;;;6.25;4.03;;;;;;;21.24;26.23;99686.53;2620623;54;20034;-65
2022/04/29 11:33:05;;;;;;;4.28;2.75;;;;;;;21.36;25.29;99685.69;2621362;54;20130;-66
2022/04/29 11:35:35;;;;;;;5.43;3.28;;;;;;;21.19;25.46;99693.69;2621575;54;20094;-65
2022/04/29 11:38:10;;;;;;;6.30;4.65;;;;;;;21.24;25.60;99686.53;2621146;54;20046;-65
2022/04/29 11:40:41;;;;;;;5.53;3.05;;;;;;;21.33;25.12;99681.59;2620484;47;20026;-66
2022/04/29 11:43:12;;;;;;;4.90;3.35;;;;;;;21.48;25.49;99673.00;2621861;39;20741;-66
2022/04/29 11:45:43;;;;;;;3.95;3.50;;;;;;;21.66;24.77;99680.03;2621619;39;20419;-66
2022/04/29 11:48:13;;;;;;;4.38;3.53;;;;;;;21.70;24.86;99671.22;2619922;47;20034;-65
2022/04/29 11:50:42;;;;;;;3.67;2.53;;;;;;;21.62;24.52;99666.25;2621197;54;20034;-65
2022/04/29 11:53:15;;;;;;;4.63;4.15;;;;;;;21.70;24.83;99656.94;2620767;47;20060;-66
2022/04/29 11:55:52;;;;;;;4.03;3.60;;;;;;;21.91;24.99;99655.41;2620958;54;20032;-66
2022/04/29 11:58:22;;;;;;;4.72;3.38;;;;;;;22.03;23.82;99656.13;2620803;54;20033;-67
2022/04/29 12:00:54;;;;;;;4.97;3.35;;;;;;;21.71;23.91;99647.81;2620478;54;20033;-66
2022/04/29 12:03:26;;;;;;;3.65;3.20;;;;;;;21.59;24.53;99653.28;2619159;54;20038;-65
2022/04/29 12:05:56;;;;;;;3.50;2.80;;;;;;;21.81;24.34;99647.19;2619606;39;20404;-66
2022/04/29 12:08:40;;;;;;;5.35;2.85;;;;;;;21.97;23.13;99652.53;2617965;54;20027;-66
2022/04/29 12:11:31;;;;;;;3.25;2.88;;;;;;;21.94;23.90;99649.53;2618760;54;20030;-63
2022/04/29 12:14:17;;;;;;;5.43;4.15;;;;;;;22.14;23.36;99643.66;2619447;54;20557;-64
2022/04/29 12:16:49;;;;;;;5.65;3.05;;;;;;;21.87;23.68;99638.09;2618987;54;20081;-65
2022/04/29 12:19:21;;;;;;;3.60;2.95;;;;;;;21.43;23.58;99628.00;2619162;54;20030;-64
2022/04/29 12:22:00;;;;;;;8.32;2.72;;;;;;;21.64;24.06;99644.50;2618665;54;20045;-65
2022/04/29 12:24:45;;;;;;;6.65;2.92;;;;;;;21.55;23.79;99643.25;2619093;54;20073;-66
2022/04/29 12:27:16;;;;;;;2.90;2.45;;;;;;;21.69;23.86;99631.13;2618622;54;20019;-66
2022/04/29 12:34:48;;;;;;;3.38;2.97;;;;;;;21.70;23.52;99628.16;2618677;54;20050;-66
2022/04/29 12:35:29;;;;;;;2.60;2.40;;;;;;;21.61;23.65;99626.94;2619845;54;20034;-66